Time;durP1;ratioP1;P1;durP2;ratioP2;P2;SDS_P1;SDS_P2;PMS_P1;PMS_P2;Temp;Humidity;BMP_temperature;BMP_pressure;BME280_temperature;BME280_humidity;BME280_pressure;Samples;Min_cycle;Max_cycle;Signal;HPM_P1;HPM_P2
2022/03/13 00:02:19;;;;;;;58.25;43.75;;;6.20;66.50;;;;;;10901911;32;20328;-72
2022/03/13 00:08:52;;;;;;;48.45;37.83;;;6.10;66.70;;;;;;10906956;32;20020;-72
2022/03/13 00:14:56;;;;;;;43.17;28.48;;;6.10;66.70;;;;;;10912879;32;20050;-72
2022/03/13 00:21:08;;;;;;;35.25;23.62;;;6.20;67.20;;;;;;10912650;32;20023;-72
2022/03/13 00:27:10;;;;;;;31.48;21.87;;;6.00;67.10;;;;;;10912065;32;20054;-72
2022/03/13 00:33:12;;;;;;;40.22;29.23;;;5.80;67.30;;;;;;10906206;32;20027;-72
2022/03/13 00:39:15;;;;;;;24.90;18.35;;;5.80;67.30;;;;;;10907918;32;20212;-72
2022/03/13 00:45:17;;;;;;;44.47;31.42;;;5.70;67.30;;;;;;10909468;32;20027;-72
2022/03/13 00:51:20;;;;;;;48.50;35.00;;;5.80;67.50;;;;;;10907431;32;20032;-72
2022/03/13 00:57:22;;;;;;;32.50;20.67;;;5.80;67.70;;;;;;10906921;32;20027;-72
2022/03/13 01:04:15;;;;;;;45.40;35.72;;;5.70;67.50;;;;;;10908553;32;20074;-73
2022/03/13 01:10:18;;;;;;;31.73;21.92;;;5.70;67.60;;;;;;10688364;33;20055;-72
2022/03/13 01:16:27;;;;;;;25.40;17.35;;;5.60;67.60;;;;;;10682550;33;20432;-72
2022/03/13 01:22:29;;;;;;;25.45;19.20;;;5.40;67.90;;;;;;10683709;33;20052;-72
2022/03/13 01:28:32;;;;;;;27.65;19.05;;;5.30;68.10;;;;;;10686340;33;20397;-72
2022/03/13 01:34:35;;;;;;;29.25;21.87;;;5.30;68.30;;;;;;10683065;33;20329;-72
2022/03/13 01:40:36;;;;;;;35.10;24.45;;;5.20;68.30;;;;;;10686868;33;20386;-72
2022/03/13 01:46:39;;;;;;;33.42;24.45;;;5.30;68.20;;;;;;10822790;32;20376;-72
2022/03/13 01:52:46;;;;;;;36.42;25.15;;;5.20;68.50;;;;;;10870474;32;20023;-72
2022/03/13 01:58:51;;;;;;;42.20;29.95;;;5.20;68.60;;;;;;10871845;32;20032;-73
2022/03/13 02:05:32;;;;;;;51.78;39.80;;;5.20;69.80;;;;;;10856688;32;20055;-72
2022/03/13 02:11:40;;;;;;;48.13;37.33;;;5.30;70.20;;;;;;10871661;32;20016;-72
2022/03/13 02:17:42;;;;;;;37.72;25.17;;;5.20;69.50;;;;;;10871573;32;20340;-72
2022/03/13 02:23:45;;;;;;;33.67;23.30;;;5.20;68.90;;;;;;10871286;32;20023;-72
2022/03/13 02:29:47;;;;;;;28.02;21.98;;;5.10;69.10;;;;;;10866385;32;20046;-72
2022/03/13 02:35:57;;;;;;;33.58;24.40;;;5.00;69.10;;;;;;10866752;32;20058;-72
2022/03/13 02:42:01;;;;;;;36.47;28.70;;;5.10;68.70;;;;;;10857595;32;20412;-72
2022/03/13 02:48:06;;;;;;;36.60;25.08;;;5.00;68.60;;;;;;10870485;32;20058;-72
2022/03/13 02:54:08;;;;;;;27.02;18.92;;;4.80;68.80;;;;;;10866437;32;20023;-72
2022/03/13 03:00:11;;;;;;;41.20;33.22;;;4.70;69.30;;;;;;10856584;32;20081;-72
2022/03/13 03:06:13;;;;;;;40.22;32.03;;;4.70;69.00;;;;;;10869904;32;20094;-72
2022/03/13 03:12:16;;;;;;;34.67;23.10;;;4.80;68.70;;;;;;10869486;32;20031;-72
2022/03/13 03:18:18;;;;;;;31.20;22.70;;;4.90;68.40;;;;;;10869352;32;20027;-72
2022/03/13 03:24:23;;;;;;;50.45;34.42;;;4.80;68.80;;;;;;10865265;32;20050;-72
2022/03/13 03:30:29;;;;;;;26.70;19.55;;;4.70;68.80;;;;;;10865886;32;20024;-72
2022/03/13 03:36:31;;;;;;;30.08;22.15;;;4.70;68.70;;;;;;10869541;32;20062;-72
2022/03/13 03:42:35;;;;;;;44.75;32.03;;;4.80;68.50;;;;;;10868069;32;20063;-72
2022/03/13 03:48:37;;;;;;;43.85;30.65;;;4.70;68.60;;;;;;10868244;32;20020;-72
2022/03/13 03:54:40;;;;;;;30.52;20.70;;;4.70;68.80;;;;;;10866021;32;20024;-72
2022/03/13 04:00:42;;;;;;;38.88;31.70;;;4.70;68.80;;;;;;10852551;32;20031;-72
2022/03/13 04:06:44;;;;;;;44.58;29.48;;;4.50;68.70;;;;;;10867812;32;20081;-72
2022/03/13 04:12:46;;;;;;;26.50;21.12;;;4.60;68.70;;;;;;10868115;32;20069;-72
2022/03/13 04:18:49;;;;;;;41.92;29.95;;;4.60;68.70;;;;;;10850623;32;20046;-72
2022/03/13 04:24:51;;;;;;;41.80;30.00;;;4.60;68.50;;;;;;10867067;32;20054;-72
2022/03/13 04:31:24;;;;;;;25.85;20.85;;;4.60;68.30;;;;;;10867658;32;20038;-72
2022/03/13 04:37:28;;;;;;;45.92;32.20;;;4.70;68.50;;;;;;10867507;32;20062;-72
2022/03/13 04:43:30;;;;;;;35.63;26.20;;;4.50;68.40;;;;;;10864331;32;20024;-72
2022/03/13 04:49:33;;;;;;;27.85;20.50;;;4.50;67.90;;;;;;10863308;32;20023;-72
2022/03/13 04:55:37;;;;;;;25.83;19.60;;;4.30;67.80;;;;;;10872224;32;20028;-72
2022/03/13 05:01:40;;;;;;;22.15;16.98;;;4.10;68.20;;;;;;10860373;32;20027;-72
2022/03/13 05:07:42;;;;;;;32.72;24.42;;;4.10;68.50;;;;;;10869257;32;20023;-72
2022/03/13 05:13:44;;;;;;;41.15;29.92;;;4.00;68.70;;;;;;10860066;32;20388;-72
2022/03/13 05:19:47;;;;;;;45.00;36.30;;;4.20;69.40;;;;;;10856816;32;20046;-71
2022/03/13 05:25:49;;;;;;;42.15;35.55;;;4.30;69.20;;;;;;10872558;32;20027;-71
2022/03/13 05:31:51;;;;;;;35.88;25.95;;;4.30;68.50;;;;;;10871931;32;20046;-72
2022/03/13 05:37:53;;;;;;;27.80;20.35;;;4.20;68.20;;;;;;10871193;32;20035;-72
2022/03/13 05:43:56;;;;;;;30.55;22.70;;;4.20;68.10;;;;;;10871969;32;20050;-71
2022/03/13 05:50:14;;;;;;;43.15;34.63;;;3.90;68.50;;;;;;10868479;32;20058;-71
2022/03/13 05:56:26;;;;;;;30.77;22.75;;;3.90;68.60;;;;;;10867688;32;20439;-71
2022/03/13 06:02:28;;;;;;;28.65;20.50;;;3.90;68.60;;;;;;10869802;32;20035;-70
2022/03/13 06:08:42;;;;;;;22.10;18.27;;;3.90;68.70;;;;;;10867802;32;20031;-70
2022/03/13 06:14:45;;;;;;;27.90;20.23;;;3.80;68.90;;;;;;10865761;32;20035;-70
2022/03/13 06:20:47;;;;;;;27.95;21.27;;;3.80;69.10;;;;;;10868172;32;20027;-71
2022/03/13 06:26:50;;;;;;;36.28;26.60;;;3.80;69.10;;;;;;10866656;32;20031;-71
2022/03/13 06:32:53;;;;;;;27.48;21.17;;;3.80;69.40;;;;;;10870107;32;20032;-71
2022/03/13 06:38:55;;;;;;;27.15;20.83;;;3.90;69.70;;;;;;10870225;32;20050;-71
2022/03/13 06:45:01;;;;;;;37.85;27.48;;;4.10;69.70;;;;;;10866702;32;20028;-71
2022/03/13 06:51:03;;;;;;;43.25;30.58;;;4.20;69.70;;;;;;10869619;32;20028;-71
2022/03/13 06:57:05;;;;;;;37.83;27.30;;;4.30;69.90;;;;;;10866393;32;20027;-71
2022/03/13 07:03:07;;;;;;;30.83;21.62;;;4.50;70.10;;;;;;10869163;32;20036;-72
2022/03/13 07:09:28;;;;;;;31.50;26.80;;;4.50;70.10;;;;;;10869174;32;20024;-72
2022/03/13 07:15:42;;;;;;;23.48;17.65;;;4.60;70.50;;;;;;10874766;27;20032;-72
2022/03/13 07:21:45;;;;;;;26.75;16.60;;;4.70;70.60;;;;;;10901877;32;20070;-72
2022/03/13 07:27:47;;;;;;;23.27;17.85;;;4.70;71.00;;;;;;10905580;32;20031;-72
2022/03/13 07:33:50;;;;;;;29.20;18.50;;;4.80;71.30;;;;;;10905111;32;20061;-72
2022/03/13 07:40:00;;;;;;;17.83;13.13;;;4.70;71.10;;;;;;10905229;32;20035;-72
2022/03/13 07:46:02;;;;;;;17.25;13.52;;;4.80;71.70;;;;;;10891478;32;20058;-72
2022/03/13 07:52:05;;;;;;;17.92;13.15;;;4.90;71.80;;;;;;10904436;32;20085;-72
2022/03/13 07:58:08;;;;;;;15.95;11.77;;;5.00;71.90;;;;;;10904489;32;20054;-72
2022/03/13 08:04:11;;;;;;;19.48;9.55;;;5.10;71.90;;;;;;10904197;32;20323;-72
2022/03/13 08:10:14;;;;;;;18.27;11.90;;;5.20;72.00;;;;;;10900125;32;20023;-73
2022/03/13 08:16:17;;;;;;;10.35;6.82;;;5.20;71.80;;;;;;10903908;32;20062;-72
2022/03/13 08:22:20;;;;;;;7.22;5.53;;;5.30;72.00;;;;;;10903852;32;20024;-72
2022/03/13 08:28:22;;;;;;;17.15;9.63;;;5.40;71.60;;;;;;10904196;32;20311;-72
2022/03/13 08:34:24;;;;;;;13.45;8.98;;;5.50;71.70;;;;;;10906715;32;20023;-72
2022/03/13 08:40:26;;;;;;;11.40;7.65;;;5.60;71.50;;;;;;10910609;32;20050;-72
2022/03/13 08:46:28;;;;;;;10.10;7.10;;;5.70;71.40;;;;;;10910388;32;20027;-72
2022/03/13 08:52:46;;;;;;;19.48;11.85;;;5.70;70.80;;;;;;10909237;32;20034;-72
2022/03/13 08:58:49;;;;;;;12.73;7.75;;;5.90;70.40;;;;;;10910098;32;20043;-72
2022/03/13 09:04:52;;;;;;;16.87;9.27;;;6.00;69.30;;;;;;10910208;32;20016;-72
2022/03/13 09:10:54;;;;;;;13.62;7.72;;;6.00;68.90;;;;;;10906608;32;20027;-72
2022/03/13 09:16:56;;;;;;;20.67;12.15;;;6.10;66.50;;;;;;10906316;32;20053;-72
2022/03/13 09:23:08;;;;;;;19.92;10.45;;;6.20;66.20;;;;;;10905403;32;20049;-72
2022/03/13 09:29:27;;;;;;;16.27;8.18;;;6.30;66.10;;;;;;10909797;32;20050;-72
2022/03/13 09:35:31;;;;;;;11.43;7.93;;;6.40;65.90;;;;;;10909200;32;20053;-72
2022/03/13 09:41:34;;;;;;;16.33;9.23;;;6.50;66.50;;;;;;10908460;32;20046;-73
2022/03/13 09:48:02;;;;;;;12.25;7.05;;;6.70;63.30;;;;;;10908504;32;20011;-72
2022/03/13 09:54:05;;;;;;;10.02;5.78;;;6.70;61.20;;;;;;10895313;32;20081;-72
2022/03/13 10:00:11;;;;;;;10.18;6.85;;;6.90;61.30;;;;;;10890837;32;20023;-72
2022/03/13 10:06:26;;;;;;;9.88;5.50;;;7.10;61.10;;;;;;10902156;32;20343;-72
2022/03/13 10:12:29;;;;;;;10.93;6.70;;;7.20;59.00;;;;;;10908648;32;20057;-72
2022/03/13 10:18:32;;;;;;;12.32;7.25;;;7.30;60.10;;;;;;10908519;32;20049;-72
2022/03/13 10:24:45;;;;;;;12.37;7.50;;;7.40;59.50;;;;;;10906215;32;20031;-72
2022/03/13 10:31:27;;;;;;;9.38;5.37;;;7.70;58.70;;;;;;10870342;32;20028;-72
2022/03/13 10:38:15;;;;;;;10.73;5.97;;;7.80;57.90;;;;;;10781213;33;20405;-72
2022/03/13 10:44:25;;;;;;;11.10;8.68;;;8.10;56.90;;;;;;10826021;32;20031;-72
2022/03/13 10:50:28;;;;;;;10.52;6.28;;;8.20;56.10;;;;;;10823793;32;20063;-72
2022/03/13 10:56:30;;;;;;;9.32;5.65;;;8.40;55.40;;;;;;10793369;32;20405;-72
2022/03/13 11:02:53;;;;;;;8.98;5.78;;;8.60;54.40;;;;;;10794485;32;20051;-72
2022/03/13 11:08:55;;;;;;;7.15;4.55;;;8.80;54.60;;;;;;10827017;32;20059;-71
2022/03/13 11:15:35;;;;;;;10.32;6.03;;;9.10;54.80;;;;;;10892422;32;20039;-72
2022/03/13 11:21:37;;;;;;;10.93;7.25;;;9.40;53.00;;;;;;10902309;32;20015;-72
2022/03/13 11:27:59;;;;;;;8.82;5.80;;;9.70;53.90;;;;;;10905843;32;20027;-70
2022/03/13 11:34:15;;;;;;;7.60;5.30;;;10.00;53.10;;;;;;10905887;32;20023;-72
2022/03/13 11:40:29;;;;;;;9.02;4.80;;;10.30;51.70;;;;;;10901649;32;20043;-72
2022/03/13 11:46:43;;;;;;;11.20;6.65;;;10.80;51.10;;;;;;10905473;32;20119;-72
2022/03/13 11:52:45;;;;;;;11.20;7.12;;;11.20;50.10;;;;;;10905607;32;20059;-72
2022/03/13 11:58:52;;;;;;;13.00;5.87;;;11.30;50.50;;;;;;10892357;32;20074;-72
2022/03/13 12:05:34;;;;;;;7.85;5.07;;;11.20;49.90;;;;;;10911346;32;20023;-72
2022/03/13 12:12:00;;;;;;;8.00;5.18;;;11.40;49.50;;;;;;10913234;32;20069;-72
2022/03/13 12:18:27;;;;;;;10.43;5.65;;;11.60;49.40;;;;;;10899740;32;20027;-72
2022/03/13 12:24:32;;;;;;;7.07;4.55;;;11.80;48.60;;;;;;10908634;32;20050;-72
2022/03/13 12:30:59;;;;;;;9.50;4.75;;;11.80;47.50;;;;;;10911721;32;20023;-72
2022/03/13 12:37:12;;;;;;;7.90;5.78;;;11.80;46.30;;;;;;10912011;32;20057;-72
2022/03/13 12:43:14;;;;;;;9.25;6.30;;;12.00;46.20;;;;;;10912265;32;20023;-72
2022/03/13 12:49:17;;;;;;;8.93;4.82;;;12.00;46.90;;;;;;10898824;32;20042;-72
2022/03/13 12:55:21;;;;;;;8.88;6.57;;;12.00;47.10;;;;;;10911300;32;20041;-72
2022/03/13 13:01:23;;;;;;;12.52;7.18;;;12.20;46.50;;;;;;10898416;32;20035;-72
2022/03/13 13:07:33;;;;;;;9.05;6.15;;;12.20;45.50;;;;;;10907383;32;20393;-72
2022/03/13 13:13:35;;;;;;;10.13;5.37;;;12.20;45.90;;;;;;10897867;32;20069;-72
2022/03/13 13:19:42;;;;;;;10.45;5.93;;;12.30;44.70;;;;;;10910966;32;20054;-72
2022/03/13 13:25:54;;;;;;;11.60;7.30;;;12.40;44.90;;;;;;10910869;32;20050;-72
2022/03/13 13:32:34;;;;;;;8.65;5.82;;;12.60;44.80;;;;;;10910626;32;20437;-72
2022/03/13 13:38:38;;;;;;;10.68;6.32;;;12.70;44.10;;;;;;10910312;32;20054;-72
2022/03/13 13:44:41;;;;;;;11.85;7.62;;;12.80;44.00;;;;;;10909915;32;20045;-72
2022/03/13 13:51:29;;;;;;;9.10;6.10;;;12.80;44.10;;;;;;10910004;32;20027;-72
2022/03/13 13:57:31;;;;;;;10.73;6.40;;;12.80;44.00;;;;;;10895558;32;20035;-71
2022/03/13 14:03:35;;;;;;;10.20;7.40;;;12.90;43.30;;;;;;10909362;32;20016;-71
2022/03/13 14:09:38;;;;;;;12.60;6.05;;;13.00;43.10;;;;;;10906097;32;20086;-70
2022/03/13 14:15:41;;;;;;;8.23;4.87;;;13.10;42.40;;;;;;10907298;32;20019;-70
2022/03/13 14:22:02;;;;;;;7.75;5.62;;;13.10;41.90;;;;;;10906927;32;20035;-70
2022/03/13 14:28:16;;;;;;;10.88;7.22;;;13.30;42.50;;;;;;10906318;32;20335;-70
2022/03/13 14:34:34;;;;;;;11.77;8.30;;;13.50;43.20;;;;;;10906856;32;20031;-71
2022/03/13 14:40:36;;;;;;;17.12;9.90;;;13.40;44.20;;;;;;10906340;32;20028;-71
2022/03/13 14:46:39;;;;;;;12.52;7.97;;;13.40;44.20;;;;;;10905765;32;20035;-71
2022/03/13 14:52:42;;;;;;;12.37;8.50;;;13.50;46.10;;;;;;10903992;32;20212;-70
2022/03/13 14:58:48;;;;;;;11.80;6.28;;;13.50;45.60;;;;;;10902861;32;20043;-70
2022/03/13 15:04:50;;;;;;;8.98;5.55;;;13.80;44.40;;;;;;10892054;32;20024;-71
2022/03/13 15:10:52;;;;;;;7.28;4.22;;;14.00;44.00;;;;;;10880985;32;20078;-70
2022/03/13 15:17:05;;;;;;;7.87;4.80;;;14.10;44.40;;;;;;10362288;27;17145657;-70
2022/03/13 15:23:07;;;;;;;11.27;8.90;;;14.30;44.00;;;;;;10832589;32;20078;-70
2022/03/13 15:29:09;;;;;;;10.77;7.95;;;14.70;43.70;;;;;;10857958;32;20027;-68
2022/03/13 15:35:12;;;;;;;13.57;8.20;;;14.90;44.10;;;;;;10862572;32;20054;-70
2022/03/13 15:41:14;;;;;;;9.95;8.00;;;15.00;44.10;;;;;;10858442;32;20035;-70
2022/03/13 15:47:16;;;;;;;8.43;6.07;;;15.70;42.30;;;;;;10828451;32;20344;-70
2022/03/13 15:53:19;;;;;;;9.48;6.75;;;16.30;42.20;;;;;;10824363;32;20024;-71
2022/03/13 15:59:21;;;;;;;12.65;8.18;;;16.60;41.50;;;;;;10826660;32;20294;-70
2022/03/13 16:05:24;;;;;;;6.07;4.05;;;16.70;42.20;;;;;;10829224;33;20340;-70
2022/03/13 16:11:26;;;;;;;8.55;4.97;;;17.00;42.00;;;;;;10829220;33;20058;-70
2022/03/13 16:17:29;;;;;;;11.25;5.55;;;17.50;40.90;;;;;;10829153;33;20024;-70
2022/03/13 16:23:32;;;;;;;11.15;5.50;;;17.70;40.90;;;;;;10828928;33;20046;-70
2022/03/13 16:29:34;;;;;;;9.02;5.87;;;17.50;41.50;;;;;;10842884;32;20046;-70
2022/03/13 16:35:36;;;;;;;10.07;5.68;;;17.10;41.80;;;;;;10866008;32;20063;-68
2022/03/13 16:41:39;;;;;;;10.10;6.20;;;16.80;41.60;;;;;;10865854;32;20023;-70
2022/03/13 16:47:42;;;;;;;8.25;4.53;;;16.40;41.90;;;;;;10867466;32;20024;-70
2022/03/13 16:53:44;;;;;;;9.57;5.25;;;15.50;43.10;;;;;;10872555;32;20046;-70
2022/03/13 16:59:49;;;;;;;7.32;4.68;;;14.40;44.90;;;;;;10868746;32;20039;-70
2022/03/13 17:05:51;;;;;;;6.10;4.50;;;13.30;46.20;;;;;;10846048;32;20024;-70
2022/03/13 17:11:57;;;;;;;6.93;3.85;;;12.50;48.00;;;;;;10861791;32;20321;-70
2022/03/13 17:18:04;;;;;;;6.93;3.72;;;12.00;48.60;;;;;;10856142;32;20328;-70
2022/03/13 17:24:13;;;;;;;9.40;5.53;;;11.70;48.90;;;;;;10855249;32;20032;-70
2022/03/13 17:30:18;;;;;;;5.87;4.20;;;11.40;49.70;;;;;;10835255;32;20367;-70
2022/03/13 17:36:23;;;;;;;7.05;3.60;;;11.20;49.90;;;;;;10834347;32;20043;-69
2022/03/13 17:42:26;;;;;;;10.32;6.62;;;11.00;49.90;;;;;;10833417;32;20146;-70
2022/03/13 17:48:30;;;;;;;14.70;6.18;;;10.80;50.60;;;;;;10834757;32;20053;-71
2022/03/13 17:54:34;;;;;;;6.55;4.87;;;10.60;51.80;;;;;;10835189;32;20426;-69
2022/03/13 18:00:36;;;;;;;8.45;4.32;;;10.50;52.10;;;;;;10830790;32;20032;-71
2022/03/13 18:06:38;;;;;;;6.90;4.53;;;10.40;52.00;;;;;;10835031;32;20054;-71
2022/03/13 18:12:46;;;;;;;10.68;6.87;;;10.30;52.00;;;;;;10821756;32;20032;-71
2022/03/13 18:18:52;;;;;;;10.00;6.28;;;10.30;52.20;;;;;;10834459;32;20028;-71
2022/03/13 18:24:55;;;;;;;7.87;4.43;;;10.20;52.60;;;;;;10834551;32;20021;-71
2022/03/13 18:30:58;;;;;;;5.97;4.47;;;10.20;52.90;;;;;;10834311;32;20422;-71
2022/03/13 18:37:00;;;;;;;6.15;3.92;;;10.00;53.10;;;;;;10843540;32;20039;-71
2022/03/13 18:43:05;;;;;;;7.25;5.18;;;9.80;53.40;;;;;;10870900;32;20332;-71
2022/03/13 18:49:08;;;;;;;14.23;6.60;;;9.70;53.80;;;;;;10870583;32;20046;-71
2022/03/13 18:55:10;;;;;;;12.82;5.57;;;9.70;54.20;;;;;;10866940;32;20042;-71
2022/03/13 19:01:30;;;;;;;8.30;6.37;;;9.60;54.40;;;;;;10865911;32;20045;-71
2022/03/13 19:07:33;;;;;;;7.28;5.32;;;9.60;54.70;;;;;;10865907;32;20317;-71
2022/03/13 19:13:36;;;;;;;13.38;7.72;;;9.40;55.00;;;;;;10869585;32;20039;-71
2022/03/13 19:20:02;;;;;;;13.95;9.48;;;9.40;55.40;;;;;;10865298;32;20027;-69
2022/03/13 19:26:04;;;;;;;15.13;10.55;;;9.40;55.70;;;;;;10869341;32;20309;-71
2022/03/13 19:32:07;;;;;;;13.23;8.43;;;9.40;55.90;;;;;;10868020;32;20055;-70
2022/03/13 19:38:09;;;;;;;9.35;6.78;;;9.30;56.00;;;;;;10854136;32;20054;-70
2022/03/13 19:44:12;;;;;;;17.58;12.35;;;9.10;56.30;;;;;;10864986;32;20046;-70
2022/03/13 19:50:16;;;;;;;14.48;10.57;;;9.00;56.80;;;;;;10863011;32;20396;-70
2022/03/13 19:56:22;;;;;;;16.90;11.25;;;8.90;57.10;;;;;;10853842;32;20392;-70
2022/03/13 20:02:28;;;;;;;17.17;11.95;;;8.90;57.40;;;;;;10866959;32;20339;-70
2022/03/13 20:08:31;;;;;;;25.12;11.57;;;8.70;57.60;;;;;;10853686;32;20376;-70
2022/03/13 20:14:34;;;;;;;22.37;15.07;;;8.70;57.90;;;;;;10853361;32;20028;-70
2022/03/13 20:20:36;;;;;;;18.85;12.65;;;8.70;58.20;;;;;;10866723;32;20077;-70
2022/03/13 20:26:39;;;;;;;19.27;14.77;;;8.60;58.30;;;;;;10873071;32;20023;-70
2022/03/13 20:32:41;;;;;;;21.35;15.65;;;8.40;58.50;;;;;;10873859;32;20024;-70
2022/03/13 20:38:44;;;;;;;21.02;15.13;;;8.40;58.90;;;;;;10873529;32;20031;-70
2022/03/13 20:44:47;;;;;;;20.50;14.57;;;8.30;59.90;;;;;;10869344;32;20051;-71
2022/03/13 20:50:49;;;;;;;25.80;15.60;;;8.20;59.90;;;;;;10860022;32;20042;-70
2022/03/13 20:56:52;;;;;;;20.30;14.95;;;8.20;60.10;;;;;;10873002;32;20376;-70
2022/03/13 21:02:54;;;;;;;22.55;16.77;;;8.20;61.00;;;;;;10870014;32;20028;-71
2022/03/13 21:09:05;;;;;;;18.08;14.15;;;8.10;61.20;;;;;;10874004;32;20023;-72
2022/03/13 21:15:13;;;;;;;20.75;14.20;;;8.10;61.50;;;;;;10873795;32;20031;-71
2022/03/13 21:21:15;;;;;;;20.08;14.93;;;8.00;62.10;;;;;;10868330;32;20384;-71
2022/03/13 21:27:17;;;;;;;18.33;12.35;;;7.90;62.30;;;;;;10836184;32;20054;-71
2022/03/13 21:33:20;;;;;;;17.75;14.95;;;7.80;63.00;;;;;;10835884;32;20021;-71
2022/03/13 21:39:22;;;;;;;21.08;14.95;;;7.70;63.40;;;;;;10835965;32;20028;-71
2022/03/13 21:45:24;;;;;;;20.98;13.73;;;7.60;64.20;;;;;;10822433;32;20020;-71
2022/03/13 21:51:27;;;;;;;18.55;11.32;;;7.50;65.00;;;;;;10822224;32;20090;-71
2022/03/13 21:57:29;;;;;;;21.33;13.23;;;7.50;65.30;;;;;;10831334;33;20020;-71
2022/03/13 22:03:47;;;;;;;17.10;12.85;;;7.50;65.50;;;;;;10823894;32;20297;-71
2022/03/13 22:09:51;;;;;;;19.05;15.02;;;7.40;65.80;;;;;;10823342;32;20062;-71
2022/03/13 22:15:53;;;;;;;18.37;14.60;;;7.40;65.90;;;;;;10861194;32;20027;-71
2022/03/13 22:21:55;;;;;;;22.92;15.93;;;7.40;65.90;;;;;;10854384;32;20019;-71
2022/03/13 22:27:57;;;;;;;24.95;17.42;;;7.40;66.00;;;;;;10858144;32;20331;-71
2022/03/13 22:33:59;;;;;;;20.02;15.38;;;7.40;65.90;;;;;;10871260;32;20095;-71
2022/03/13 22:40:03;;;;;;;21.67;17.95;;;7.40;66.20;;;;;;10870728;32;20050;-71
2022/03/13 22:46:05;;;;;;;20.67;15.75;;;7.40;66.30;;;;;;10856805;32;20019;-71
2022/03/13 22:52:12;;;;;;;22.15;16.10;;;7.40;66.30;;;;;;10866376;32;20019;-71
2022/03/13 22:58:14;;;;;;;25.55;16.58;;;7.40;66.20;;;;;;10870365;32;20051;-71
2022/03/13 23:04:16;;;;;;;21.75;17.42;;;7.40;66.20;;;;;;10870220;32;20383;-70
2022/03/13 23:10:18;;;;;;;22.25;18.25;;;7.30;66.40;;;;;;10870572;32;20023;-71
2022/03/13 23:16:20;;;;;;;21.70;16.60;;;7.30;66.30;;;;;;10867745;27;20061;-71
2022/03/13 23:22:22;;;;;;;18.87;14.13;;;7.30;66.50;;;;;;10906788;32;20392;-71
2022/03/13 23:28:28;;;;;;;16.40;12.57;;;7.30;66.60;;;;;;10893269;32;20031;-71
2022/03/13 23:34:30;;;;;;;20.40;16.70;;;7.20;66.90;;;;;;10906474;32;20019;-71
2022/03/13 23:40:34;;;;;;;20.37;15.68;;;7.20;67.10;;;;;;10906343;32;20031;-71
2022/03/13 23:46:36;;;;;;;18.67;14.27;;;7.10;67.20;;;;;;10906251;32;20065;-71
2022/03/13 23:52:39;;;;;;;21.15;15.48;;;7.20;67.20;;;;;;10906171;32;20023;-71
2022/03/13 23:58:42;;;;;;;16.55;13.05;;;7.20;66.80;;;;;;10905693;32;20031;-71
